^^
Saratoga-Weather Station Historical Data
Daily Summary for March 7, 2020 Units:  Both    English   Metric
Daily Weekly Monthly Yearly Custom
  High: Low: Average:
Temperature: 46 °F /  7.8 °C 33.4 °F /  0.8 °C 41.4 °F /  5.2 °C
Dew Point: 43.7 °F /  6.5 °C 32.9 °F /  0.5 °C 39.9 °F /  4.4 °C
Humidity: 98% 88% 95%
Wind Speed: 16mph /  25.7km/h - 1.6mph /  2.6km/h
Wind Gust: 16mph /  25.7km/h - -
Wind- - WSW
Pressure: 30.4 in /  1030.5 hPa 30.3 in /  1024.7 hPa -
Precipitation: 0.01 in /  0.2 mm    
Historical Graphs
 
 
Tabular Data for March 7, 2020
Time Temperature Dew Point Pressure Wind Wind Speed Wind Gust Humidity Rainfall Rate (Hourly) solar
00:04 33.4 °F /  0.8 °C 32.9 °F /  0.5 °C 30.3in /  1025.1hPa Calm   2mph /  3.2km/h 98% 0in /  0.0mm 0 W/m2
00:09 33.6 °F /  0.9 °C 33.1 °F /  0.6 °C 30.3in /  1025.4hPa Calm   1mph /  1.6km/h 98% 0in /  0.0mm 0 W/m2
00:14 34.3 °F /  1.3 °C 33.8 °F /  1 °C 30.3in /  1025.4hPa Calm   1mph /  1.6km/h 98% 0in /  0.0mm 0 W/m2
00:19 35.1 °F /  1.7 °C 34.5 °F /  1.4 °C 30.3in /  1025.1hPa SSE 2mph /  3.2km/h 2mph /  3.2km/h 98% 0in /  0.0mm 0 W/m2
00:24 35.8 °F /  2.1 °C 35.2 °F /  1.8 °C 30.3in /  1025.1hPa South 4mph /  6.4km/h 4mph /  6.4km/h 98% 0in /  0.0mm 0 W/m2
00:29 36 °F /  2.2 °C 35.4 °F /  1.9 °C 30.3in /  1025.1hPa Calm   1mph /  1.6km/h 98% 0in /  0.0mm 0 W/m2
00:34 36.1 °F /  2.3 °C 35.6 °F /  2 °C 30.3in /  1025.1hPa West 0.9mph /  1.4km/h 6mph /  9.7km/h 98% 0in /  0.0mm 0 W/m2
00:39 36.3 °F /  2.4 °C 35.8 °F /  2.1 °C 30.3in /  1025.1hPa WNW 4.9mph /  7.9km/h 6mph /  9.7km/h 98% 0in /  0.0mm 0 W/m2
00:44 36.5 °F /  2.5 °C 36 °F /  2.2 °C 30.3in /  1024.7hPa Calm   3mph /  4.8km/h 98% 0in /  0.0mm 0 W/m2
00:49 36.3 °F /  2.4 °C 35.8 °F /  2.1 °C 30.3in /  1025.1hPa SSW 2mph /  3.2km/h 2mph /  3.2km/h 98% 0in /  0.0mm 0 W/m2
00:54 36.3 °F /  2.4 °C 35.8 °F /  2.1 °C 30.3in /  1024.7hPa Calm   3mph /  4.8km/h 98% 0in /  0.0mm 0 W/m2
00:59 36.3 °F /  2.4 °C 35.8 °F /  2.1 °C 30.3in /  1025.1hPa Calm   1mph /  1.6km/h 98% 0in /  0.0mm 0 W/m2
01:04 36.3 °F /  2.4 °C 35.8 °F /  2.1 °C 30.3in /  1025.1hPa Calm   3mph /  4.8km/h 98% 0in /  0.0mm 0 W/m2
01:09 36.5 °F /  2.5 °C 36 °F /  2.2 °C 30.3in /  1025.1hPa Calm     98% 0in /  0.0mm 0 W/m2
01:14 36.3 °F /  2.4 °C 35.8 °F /  2.1 °C 30.3in /  1025.1hPa Calm   2mph /  3.2km/h 98% 0in /  0.0mm 0 W/m2
01:20 36.3 °F /  2.4 °C 35.8 °F /  2.1 °C 30.3in /  1025.1hPa Calm   2mph /  3.2km/h 98% 0in /  0.0mm 0 W/m2
01:25 36.3 °F /  2.4 °C 35.8 °F /  2.1 °C 30.3in /  1025.4hPa West 2mph /  3.2km/h 6mph /  9.7km/h 98% 0in /  0.0mm 0 W/m2
01:30 36.7 °F /  2.6 °C 36.1 °F /  2.3 °C 30.3in /  1025.1hPa East 0.9mph /  1.4km/h 4mph /  6.4km/h 98% 0in /  0.0mm 0 W/m2
01:35 36.9 °F /  2.7 °C 36.3 °F /  2.4 °C 30.3in /  1025.1hPa NW 2mph /  3.2km/h 2mph /  3.2km/h 98% 0in /  0.0mm 0 W/m2
01:40 36.9 °F /  2.7 °C 36.3 °F /  2.4 °C 30.3in /  1025.1hPa Calm   3mph /  4.8km/h 98% 0in /  0.0mm 0 W/m2
01:45 37 °F /  2.8 °C 36.5 °F /  2.5 °C 30.3in /  1025.1hPa West 9mph /  14.5km/h 9mph /  14.5km/h 98% 0in /  0.0mm 0 W/m2
01:50 37.2 °F /  2.9 °C 36.7 °F /  2.6 °C 30.3in /  1025.1hPa West 8.1mph /  13km/h 10mph /  16.1km/h 98% 0in /  0.0mm 0 W/m2
01:55 37.6 °F /  3.1 °C 37 °F /  2.8 °C 30.3in /  1025.4hPa NW 6.9mph /  11.1km/h 9mph /  14.5km/h 98% 0in /  0.0mm 0 W/m2
02:00 37.6 °F /  3.1 °C 37 °F /  2.8 °C 30.3in /  1025.4hPa WNW 2.9mph /  4.7km/h 14mph /  22.5km/h 98% 0in /  0.0mm 0 W/m2
02:05 37.8 °F /  3.2 °C 37.2 °F /  2.9 °C 30.3in /  1025.4hPa West 10.1mph /  16.3km/h 16mph /  25.7km/h 98% 0in /  0.0mm 0 W/m2
02:10 37.9 °F /  3.3 °C 37.4 °F /  3 °C 30.3in /  1025.4hPa WNW 4mph /  6.4km/h 8mph /  12.9km/h 98% 0.01in /  0.2mm 0 W/m2
02:15 37.9 °F /  3.3 °C 37.4 °F /  3 °C 30.3in /  1025.4hPa WNW 16mph /  25.7km/h 16mph /  25.7km/h 98% 0.01in /  0.2mm 0 W/m2
02:20 37.9 °F /  3.3 °C 37.4 °F /  3 °C 30.3in /  1025.4hPa WSW 8.9mph /  14.3km/h 10mph /  16.1km/h 98% 0.01in /  0.2mm 0 W/m2
02:26 38.1 °F /  3.4 °C 37.6 °F /  3.1 °C 30.3in /  1025.4hPa WSW 4mph /  6.4km/h 14mph /  22.5km/h 98% 0.01in /  0.2mm 0 W/m2
02:31 38.1 °F /  3.4 °C 37.6 °F /  3.1 °C 30.3in /  1025.4hPa WNW 2.9mph /  4.7km/h 6mph /  9.7km/h 98% 0.01in /  0.2mm 0 W/m2
02:36 38.5 °F /  3.6 °C 37.9 °F /  3.3 °C 30.3in /  1025.7hPa West 2mph /  3.2km/h 7mph /  11.3km/h 98% 0.01in /  0.2mm 0 W/m2
02:41 38.5 °F /  3.6 °C 37.9 °F /  3.3 °C 30.3in /  1025.7hPa Calm   3mph /  4.8km/h 98% 0.01in /  0.2mm 0 W/m2
02:46 38.5 °F /  3.6 °C 37.9 °F /  3.3 °C 30.3in /  1026.1hPa West 4mph /  6.4km/h 8mph /  12.9km/h 98% 0.01in /  0.2mm 0 W/m2
02:51 38.7 °F /  3.7 °C 38.1 °F /  3.4 °C 30.3in /  1026.1hPa West 0.9mph /  1.4km/h 4mph /  6.4km/h 98% 0.01in /  0.2mm 0 W/m2
02:56 38.8 °F /  3.8 °C 38.3 °F /  3.5 °C 30.3in /  1026.1hPa Calm   6mph /  9.7km/h 98% 0.01in /  0.2mm 0 W/m2
03:01 38.8 °F /  3.8 °C 38.3 °F /  3.5 °C 30.3in /  1026.1hPa WSW 2mph /  3.2km/h 7mph /  11.3km/h 98% 0.01in /  0.2mm 0 W/m2
03:06 39 °F /  3.9 °C 38.5 °F /  3.6 °C 30.3in /  1026.1hPa SW 2.9mph /  4.7km/h 8mph /  12.9km/h 98% 0in /  0.0mm 0 W/m2
03:11 39.2 °F /  4 °C 38.7 °F /  3.7 °C 30.3in /  1026.1hPa WSW 8.1mph /  13km/h 10mph /  16.1km/h 98% 0in /  0.0mm 0 W/m2
03:16 39.2 °F /  4 °C 38.7 °F /  3.7 °C 30.3in /  1026.4hPa NW 8.1mph /  13km/h 10mph /  16.1km/h 98% 0in /  0.0mm 0 W/m2
03:21 39.4 °F /  4.1 °C 38.8 °F /  3.8 °C 30.3in /  1026.4hPa West 8.9mph /  14.3km/h 9mph /  14.5km/h 98% 0in /  0.0mm 0 W/m2
03:26 39.4 °F /  4.1 °C 38.8 °F /  3.8 °C 30.3in /  1026.4hPa West 4mph /  6.4km/h 7mph /  11.3km/h 98% 0in /  0.0mm 0 W/m2
03:31 39.4 °F /  4.1 °C 38.8 °F /  3.8 °C 30.3in /  1026.4hPa WSW 2mph /  3.2km/h 10mph /  16.1km/h 98% 0in /  0.0mm 0 W/m2
03:37 39.6 °F /  4.2 °C 39 °F /  3.9 °C 30.3in /  1026.4hPa WNW 2.9mph /  4.7km/h 7mph /  11.3km/h 98% 0in /  0.0mm 0 W/m2
03:42 39.6 °F /  4.2 °C 39 °F /  3.9 °C 30.3in /  1026.4hPa WSW 4.9mph /  7.9km/h 9mph /  14.5km/h 98% 0in /  0.0mm 0 W/m2
03:47 39.6 °F /  4.2 °C 39 °F /  3.9 °C 30.3in /  1026.4hPa SW 2mph /  3.2km/h 6mph /  9.7km/h 98% 0in /  0.0mm 0 W/m2
03:52 39.6 °F /  4.2 °C 39 °F /  3.9 °C 30.3in /  1026.4hPa WSW 10.1mph /  16.3km/h 12mph /  19.3km/h 98% 0in /  0.0mm 0 W/m2
03:57 39.7 °F /  4.3 °C 39.2 °F /  4 °C 30.3in /  1026.4hPa SW 0.9mph /  1.4km/h 7mph /  11.3km/h 98% 0in /  0.0mm 0 W/m2
04:02 39.7 °F /  4.3 °C 39.2 °F /  4 °C 30.3in /  1026.4hPa WSW 6.9mph /  11.1km/h 9mph /  14.5km/h 98% 0in /  0.0mm 0 W/m2
04:07 39.7 °F /  4.3 °C 39.2 °F /  4 °C 30.3in /  1026.4hPa West 2.9mph /  4.7km/h 6mph /  9.7km/h 98% 0in /  0.0mm 0 W/m2
04:12 39.7 °F /  4.3 °C 39.2 °F /  4 °C 30.3in /  1026.4hPa WSW 4.9mph /  7.9km/h 8mph /  12.9km/h 98% 0in /  0.0mm 0 W/m2
04:17 39.9 °F /  4.4 °C 39.4 °F /  4.1 °C 30.3in /  1026.4hPa West 2.9mph /  4.7km/h 8mph /  12.9km/h 98% 0in /  0.0mm 0 W/m2
04:22 39.9 °F /  4.4 °C 39.4 °F /  4.1 °C 30.3in /  1026.4hPa SW 4.9mph /  7.9km/h 9mph /  14.5km/h 98% 0in /  0.0mm 0 W/m2
04:27 39.9 °F /  4.4 °C 39.4 °F /  4.1 °C 30.3in /  1026.4hPa WNW 4.9mph /  7.9km/h 7mph /  11.3km/h 98% 0in /  0.0mm 0 W/m2
04:32 40.1 °F /  4.5 °C 39.6 °F /  4.2 °C 30.3in /  1026.8hPa WSW 6.9mph /  11.1km/h 9mph /  14.5km/h 98% 0in /  0.0mm 0 W/m2
04:37 40.3 °F /  4.6 °C 39.7 °F /  4.3 °C 30.3in /  1026.4hPa West 6mph /  9.7km/h 7mph /  11.3km/h 98% 0in /  0.0mm 0 W/m2
04:42 40.3 °F /  4.6 °C 39.7 °F /  4.3 °C 30.3in /  1026.8hPa West 4mph /  6.4km/h 9mph /  14.5km/h 98% 0in /  0.0mm 0 W/m2
04:47 40.3 °F /  4.6 °C 39.7 °F /  4.3 °C 30.3in /  1026.8hPa West 2mph /  3.2km/h 8mph /  12.9km/h 98% 0in /  0.0mm 0 W/m2
04:52 40.3 °F /  4.6 °C 39.7 °F /  4.3 °C 30.3in /  1026.8hPa West 4mph /  6.4km/h 10mph /  16.1km/h 98% 0in /  0.0mm 0 W/m2
04:57 40.5 °F /  4.7 °C 39.9 °F /  4.4 °C 30.3in /  1026.8hPa WSW 8.9mph /  14.3km/h 10mph /  16.1km/h 98% 0in /  0.0mm 0 W/m2
05:02 40.5 °F /  4.7 °C 39.9 °F /  4.4 °C 30.3in /  1026.8hPa WSW 6.9mph /  11.1km/h 11mph /  17.7km/h 98% 0in /  0.0mm 0 W/m2
05:07 40.6 °F /  4.8 °C 40.1 °F /  4.5 °C 30.3in /  1026.8hPa WNW 4mph /  6.4km/h 6mph /  9.7km/h 98% 0in /  0.0mm 0 W/m2
05:12 40.6 °F /  4.8 °C 40.1 °F /  4.5 °C 30.3in /  1026.8hPa WSW 0.9mph /  1.4km/h 5mph /  8km/h 98% 0in /  0.0mm 0 W/m2
05:17 40.8 °F /  4.9 °C 40.3 °F /  4.6 °C 30.3in /  1026.8hPa SW 2.9mph /  4.7km/h 9mph /  14.5km/h 98% 0in /  0.0mm 0 W/m2
05:22 40.8 °F /  4.9 °C 40.3 °F /  4.6 °C 30.3in /  1026.8hPa WSW 4.9mph /  7.9km/h 8mph /  12.9km/h 98% 0in /  0.0mm 0 W/m2
05:27 41 °F /  5 °C 40.5 °F /  4.7 °C 30.3in /  1026.8hPa WSW 4.9mph /  7.9km/h 6mph /  9.7km/h 98% 0in /  0.0mm 0 W/m2
05:32 41 °F /  5 °C 40.3 °F /  4.6 °C 30.3in /  1026.8hPa West 4mph /  6.4km/h 10mph /  16.1km/h 97% 0in /  0.0mm 0 W/m2
05:37 41.2 °F /  5.1 °C 40.6 °F /  4.8 °C 30.3in /  1026.8hPa WSW 8.9mph /  14.3km/h 9mph /  14.5km/h 98% 0in /  0.0mm 0 W/m2
05:42 41.2 °F /  5.1 °C 40.6 °F /  4.8 °C 30.3in /  1026.8hPa SW 6mph /  9.7km/h 9mph /  14.5km/h 98% 0in /  0.0mm 0 W/m2
05:47 41.2 °F /  5.1 °C 40.5 °F /  4.7 °C 30.3in /  1026.8hPa WSW 2.9mph /  4.7km/h 7mph /  11.3km/h 97% 0in /  0.0mm 0 W/m2
05:53 41.4 °F /  5.2 °C 40.6 °F /  4.8 °C 30.3in /  1026.8hPa WSW 6.9mph /  11.1km/h 7mph /  11.3km/h 97% 0in /  0.0mm 0 W/m2
05:58 41.4 °F /  5.2 °C 40.6 °F /  4.8 °C 30.3in /  1026.8hPa West 4mph /  6.4km/h 11mph /  17.7km/h 97% 0in /  0.0mm 0 W/m2
06:03 41.4 °F /  5.2 °C 40.6 °F /  4.8 °C 30.3in /  1027.1hPa WNW 6.9mph /  11.1km/h 9mph /  14.5km/h 97% 0in /  0.0mm 0 W/m2
06:08 41.4 °F /  5.2 °C 40.6 °F /  4.8 °C 30.3in /  1027.1hPa WSW 2mph /  3.2km/h 11mph /  17.7km/h 97% 0in /  0.0mm 0 W/m2
06:13 41.4 °F /  5.2 °C 40.6 °F /  4.8 °C 30.3in /  1027.1hPa West 4mph /  6.4km/h 6mph /  9.7km/h 97% 0in /  0.0mm 0 W/m2
06:18 41.4 °F /  5.2 °C 40.6 °F /  4.8 °C 30.3in /  1027.1hPa West 2mph /  3.2km/h 2mph /  3.2km/h 97% 0in /  0.0mm 0 W/m2
06:23 41.5 °F /  5.3 °C 40.8 °F /  4.9 °C 30.3in /  1027.1hPa WNW 0.9mph /  1.4km/h 4mph /  6.4km/h 97% 0in /  0.0mm 0 W/m2
06:28 41.5 °F /  5.3 °C 40.8 °F /  4.9 °C 30.3in /  1027.1hPa South 4mph /  6.4km/h 9mph /  14.5km/h 97% 0in /  0.0mm 0 W/m2
06:33 41.5 °F /  5.3 °C 40.8 °F /  4.9 °C 30.3in /  1027.1hPa WNW 4mph /  6.4km/h 7mph /  11.3km/h 97% 0in /  0.0mm 0 W/m2
06:38 41.5 °F /  5.3 °C 40.8 °F /  4.9 °C 30.3in /  1027.4hPa West 2.9mph /  4.7km/h 8mph /  12.9km/h 97% 0in /  0.0mm 0 W/m2
06:43 41.5 °F /  5.3 °C 40.8 °F /  4.9 °C 30.3in /  1027.4hPa WSW 2mph /  3.2km/h 5mph /  8km/h 97% 0in /  0.0mm 0 W/m2
06:48 41.7 °F /  5.4 °C 41 °F /  5 °C 30.3in /  1027.4hPa West 2.9mph /  4.7km/h 12mph /  19.3km/h 97% 0in /  0.0mm 0 W/m2
06:53 41.7 °F /  5.4 °C 41 °F /  5 °C 30.3in /  1027.4hPa WSW 4mph /  6.4km/h 8mph /  12.9km/h 97% 0in /  0.0mm 0 W/m2
06:58 41.7 °F /  5.4 °C 41 °F /  5 °C 30.3in /  1027.4hPa WNW 6mph /  9.7km/h 8mph /  12.9km/h 97% 0in /  0.0mm 0 W/m2
07:03 41.7 °F /  5.4 °C 41 °F /  5 °C 30.4in /  1027.8hPa Calm   4mph /  6.4km/h 97% 0in /  0.0mm 0 W/m2
07:08 41.7 °F /  5.4 °C 41 °F /  5 °C 30.4in /  1027.8hPa WSW 4.9mph /  7.9km/h 6mph /  9.7km/h 97% 0in /  0.0mm 0 W/m2
07:13 41.9 °F /  5.5 °C 41.2 °F /  5.1 °C 30.4in /  1027.8hPa West 2mph /  3.2km/h 4mph /  6.4km/h 97% 0in /  0.0mm 0 W/m2
07:18 41.9 °F /  5.5 °C 41.2 °F /  5.1 °C 30.4in /  1027.8hPa WSW 2.9mph /  4.7km/h 4mph /  6.4km/h 97% 0in /  0.0mm 0 W/m2
07:24 41.9 °F /  5.5 °C 41.2 °F /  5.1 °C 30.4in /  1027.8hPa West 4mph /  6.4km/h 10mph /  16.1km/h 97% 0in /  0.0mm 0 W/m2
07:29 41.9 °F /  5.5 °C 41.2 °F /  5.1 °C 30.4in /  1027.8hPa SW 2.9mph /  4.7km/h   97% 0in /  0.0mm 0 W/m2
07:34 42.1 °F /  5.6 °C 41.4 °F /  5.2 °C 30.4in /  1027.8hPa West 2.9mph /  4.7km/h 6mph /  9.7km/h 97% 0in /  0.0mm 0 W/m2
07:39 42.1 °F /  5.6 °C 41.4 °F /  5.2 °C 30.4in /  1028.1hPa West 2mph /  3.2km/h 5mph /  8km/h 97% 0in /  0.0mm 0 W/m2
07:44 42.1 °F /  5.6 °C 41.4 °F /  5.2 °C 30.4in /  1028.5hPa SSW 2.9mph /  4.7km/h 6mph /  9.7km/h 97% 0in /  0.0mm 0 W/m2
07:49 42.3 °F /  5.7 °C 41.5 °F /  5.3 °C 30.4in /  1028.5hPa WSW 0.9mph /  1.4km/h 4mph /  6.4km/h 97% 0in /  0.0mm 0 W/m2
07:54 42.3 °F /  5.7 °C 41.5 °F /  5.3 °C 30.4in /  1028.5hPa WSW 0.9mph /  1.4km/h 2mph /  3.2km/h 97% 0in /  0.0mm 0 W/m2
07:59 42.3 °F /  5.7 °C 41.5 °F /  5.3 °C 30.4in /  1028.5hPa WSW 4.9mph /  7.9km/h 6mph /  9.7km/h 97% 0in /  0.0mm 0 W/m2
08:04 42.3 °F /  5.7 °C 41.5 °F /  5.3 °C 30.4in /  1028.5hPa West 4mph /  6.4km/h 6mph /  9.7km/h 97% 0in /  0.0mm 0 W/m2
08:09 42.3 °F /  5.7 °C 41.5 °F /  5.3 °C 30.4in /  1028.5hPa WSW 4mph /  6.4km/h 5mph /  8km/h 97% 0in /  0.0mm 0 W/m2
08:14 42.3 °F /  5.7 °C 41.5 °F /  5.3 °C 30.4in /  1028.8hPa WSW 2.9mph /  4.7km/h 3mph /  4.8km/h 97% 0in /  0.0mm 0 W/m2
08:19 42.3 °F /  5.7 °C 41.5 °F /  5.3 °C 30.4in /  1028.8hPa WNW 4mph /  6.4km/h 9mph /  14.5km/h 97% 0in /  0.0mm 0 W/m2
08:24 42.3 °F /  5.7 °C 41.5 °F /  5.3 °C 30.4in /  1029.1hPa West 2.9mph /  4.7km/h 6mph /  9.7km/h 97% 0in /  0.0mm 0 W/m2
08:29 42.3 °F /  5.7 °C 41.5 °F /  5.3 °C 30.4in /  1029.1hPa West 2mph /  3.2km/h 9mph /  14.5km/h 97% 0in /  0.0mm 0 W/m2
08:34 42.3 °F /  5.7 °C 41.5 °F /  5.3 °C 30.4in /  1029.1hPa Calm   2mph /  3.2km/h 97% 0in /  0.0mm 0 W/m2
08:39 42.3 °F /  5.7 °C 41.5 °F /  5.3 °C 30.4in /  1029.5hPa Calm     97% 0in /  0.0mm 0 W/m2
08:44 42.3 °F /  5.7 °C 41.5 °F /  5.3 °C 30.4in /  1029.5hPa Calm   4mph /  6.4km/h 97% 0in /  0.0mm 5 W/m2
08:49 42.3 °F /  5.7 °C 41.5 °F /  5.3 °C 30.4in /  1029.5hPa Calm   3mph /  4.8km/h 97% 0in /  0.0mm 7 W/m2
08:54 42.3 °F /  5.7 °C 41.5 °F /  5.3 °C 30.4in /  1029.5hPa WSW 0.9mph /  1.4km/h 1mph /  1.6km/h 97% 0in /  0.0mm 11 W/m2
08:59 42.4 °F /  5.8 °C 41.7 °F /  5.4 °C 30.4in /  1029.5hPa West 0.9mph /  1.4km/h 2mph /  3.2km/h 97% 0in /  0.0mm 12 W/m2
09:04 42.4 °F /  5.8 °C 41.7 °F /  5.4 °C 30.4in /  1029.5hPa Calm     97% 0in /  0.0mm 19 W/m2
09:09 42.4 °F /  5.8 °C 41.7 °F /  5.4 °C 30.4in /  1029.8hPa Calm     97% 0in /  0.0mm 19 W/m2
09:14 42.4 °F /  5.8 °C 41.7 °F /  5.4 °C 30.4in /  1029.8hPa Calm     97% 0in /  0.0mm 33 W/m2
09:20 42.6 °F /  5.9 °C 41.9 °F /  5.5 °C 30.4in /  1029.8hPa Calm     97% 0in /  0.0mm 37 W/m2
09:25 42.6 °F /  5.9 °C 41.9 °F /  5.5 °C 30.4in /  1029.8hPa Calm   2mph /  3.2km/h 97% 0in /  0.0mm 37 W/m2
09:30 42.6 °F /  5.9 °C 41.9 °F /  5.5 °C 30.4in /  1029.8hPa Calm     97% 0in /  0.0mm 58 W/m2
09:35 42.6 °F /  5.9 °C 41.9 °F /  5.5 °C 30.4in /  1029.8hPa Calm   3mph /  4.8km/h 97% 0in /  0.0mm 47 W/m2
09:40 42.6 °F /  5.9 °C 41.9 °F /  5.5 °C 30.4in /  1029.8hPa Calm   2mph /  3.2km/h 97% 0in /  0.0mm 40 W/m2
09:45 42.6 °F /  5.9 °C 41.9 °F /  5.5 °C 30.4in /  1029.8hPa SSE 2mph /  3.2km/h 3mph /  4.8km/h 97% 0in /  0.0mm 33 W/m2
09:50 42.8 °F /  6 °C 42.1 °F /  5.6 °C 30.4in /  1029.8hPa Calm   1mph /  1.6km/h 97% 0in /  0.0mm 35 W/m2
09:55 42.8 °F /  6 °C 42.1 °F /  5.6 °C 30.4in /  1029.8hPa West 2.9mph /  4.7km/h 3mph /  4.8km/h 97% 0in /  0.0mm 81 W/m2
10:00 43 °F /  6.1 °C 42.3 °F /  5.7 °C 30.4in /  1029.8hPa WSW 4mph /  6.4km/h 6mph /  9.7km/h 97% 0in /  0.0mm 86 W/m2
10:05 43 °F /  6.1 °C 42.3 °F /  5.7 °C 30.4in /  1029.8hPa Calm   4mph /  6.4km/h 97% 0in /  0.0mm 67 W/m2
10:10 43 °F /  6.1 °C 42.3 °F /  5.7 °C 30.4in /  1029.8hPa South 0.9mph /  1.4km/h 6mph /  9.7km/h 97% 0in /  0.0mm 69 W/m2
10:15 43 °F /  6.1 °C 42.3 °F /  5.7 °C 30.4in /  1029.8hPa WSW 6mph /  9.7km/h 6mph /  9.7km/h 97% 0in /  0.0mm 54 W/m2
10:20 43 °F /  6.1 °C 41.9 °F /  5.5 °C 30.4in /  1029.8hPa Calm   4mph /  6.4km/h 96% 0in /  0.0mm 74 W/m2
10:25 43 °F /  6.1 °C 41.9 °F /  5.5 °C 30.4in /  1029.8hPa WSW 2.9mph /  4.7km/h 4mph /  6.4km/h 96% 0in /  0.0mm 97 W/m2
10:30 43.2 °F /  6.2 °C 42.1 °F /  5.6 °C 30.4in /  1030.1hPa West 2.9mph /  4.7km/h 3mph /  4.8km/h 96% 0in /  0.0mm 127 W/m2
10:35 43.3 °F /  6.3 °C 42.3 °F /  5.7 °C 30.4in /  1030.1hPa SSE 0.9mph /  1.4km/h 8mph /  12.9km/h 96% 0in /  0.0mm 90 W/m2
10:40 43.3 °F /  6.3 °C 42.3 °F /  5.7 °C 30.4in /  1030.1hPa WSW 2mph /  3.2km/h 3mph /  4.8km/h 96% 0in /  0.0mm 62 W/m2
10:45 43.3 °F /  6.3 °C 42.3 °F /  5.7 °C 30.4in /  1030.1hPa West 2.9mph /  4.7km/h 4mph /  6.4km/h 96% 0in /  0.0mm 37 W/m2
10:50 43.3 °F /  6.3 °C 42.3 °F /  5.7 °C 30.4in /  1030.1hPa SW 2mph /  3.2km/h 5mph /  8km/h 96% 0in /  0.0mm 18 W/m2
10:55 43.3 °F /  6.3 °C 42.3 °F /  5.7 °C 30.4in /  1030.1hPa Calm   2mph /  3.2km/h 96% 0in /  0.0mm 12 W/m2
11:00 43.3 °F /  6.3 °C 42.3 °F /  5.7 °C 30.4in /  1030.1hPa SW 0.9mph /  1.4km/h 3mph /  4.8km/h 96% 0in /  0.0mm 14 W/m2
11:05 43.3 °F /  6.3 °C 42.3 °F /  5.7 °C 30.4in /  1030.1hPa WSW 6.9mph /  11.1km/h 7mph /  11.3km/h 96% 0in /  0.0mm 53 W/m2
11:10 43.3 °F /  6.3 °C 42.3 °F /  5.7 °C 30.4in /  1030.1hPa West 0.9mph /  1.4km/h 1mph /  1.6km/h 96% 0in /  0.0mm 40 W/m2
11:15 43.3 °F /  6.3 °C 42.3 °F /  5.7 °C 30.4in /  1030.1hPa Calm   4mph /  6.4km/h 96% 0in /  0.0mm 44 W/m2
11:20 43.3 °F /  6.3 °C 42.3 °F /  5.7 °C 30.4in /  1030.1hPa Calm   8mph /  12.9km/h 96% 0in /  0.0mm 65 W/m2
11:25 43.5 °F /  6.4 °C 42.4 °F /  5.8 °C 30.4in /  1030.1hPa WSW 4mph /  6.4km/h 4mph /  6.4km/h 96% 0in /  0.0mm 72 W/m2
11:30 43.5 °F /  6.4 °C 42.4 °F /  5.8 °C 30.4in /  1030.1hPa South 2mph /  3.2km/h 7mph /  11.3km/h 96% 0in /  0.0mm 83 W/m2
11:35 43.7 °F /  6.5 °C 42.6 °F /  5.9 °C 30.4in /  1030.1hPa Calm   3mph /  4.8km/h 96% 0in /  0.0mm 81 W/m2
11:40 43.9 °F /  6.6 °C 42.8 °F /  6 °C 30.4in /  1030.1hPa West 6.9mph /  11.1km/h 8mph /  12.9km/h 96% 0in /  0.0mm 70 W/m2
11:45 43.9 °F /  6.6 °C 42.8 °F /  6 °C 30.4in /  1030.1hPa SW 0.9mph /  1.4km/h 4mph /  6.4km/h 96% 0in /  0.0mm 67 W/m2
11:50 43.9 °F /  6.6 °C 42.8 °F /  6 °C 30.4in /  1030.5hPa Calm   1mph /  1.6km/h 96% 0in /  0.0mm 54 W/m2
11:55 44.1 °F /  6.7 °C 42.8 °F /  6 °C 30.4in /  1030.1hPa SW 2.9mph /  4.7km/h 4mph /  6.4km/h 95% 0in /  0.0mm 54 W/m2
12:00 44.1 °F /  6.7 °C 42.8 °F /  6 °C 30.4in /  1030.1hPa Calm   2mph /  3.2km/h 95% 0in /  0.0mm 62 W/m2
12:05 44.1 °F /  6.7 °C 42.8 °F /  6 °C 30.4in /  1030.1hPa Calm   1mph /  1.6km/h 95% 0in /  0.0mm 79 W/m2
12:10 44.1 °F /  6.7 °C 42.8 °F /  6 °C 30.4in /  1030.1hPa WSW 0.9mph /  1.4km/h 1mph /  1.6km/h 95% 0in /  0.0mm 69 W/m2
12:15 44.1 °F /  6.7 °C 42.8 °F /  6 °C 30.4in /  1030.1hPa Calm   3mph /  4.8km/h 95% 0in /  0.0mm 65 W/m2
12:20 44.2 °F /  6.8 °C 43 °F /  6.1 °C 30.4in /  1030.1hPa SSW 2.9mph /  4.7km/h 4mph /  6.4km/h 95% 0in /  0.0mm 86 W/m2
12:25 44.2 °F /  6.8 °C 43 °F /  6.1 °C 30.4in /  1030.1hPa Calm     95% 0in /  0.0mm 83 W/m2
12:30 44.4 °F /  6.9 °C 43.2 °F /  6.2 °C 30.4in /  1030.1hPa Calm   7mph /  11.3km/h 95% 0in /  0.0mm 72 W/m2
12:35 44.4 °F /  6.9 °C 43.2 °F /  6.2 °C 30.4in /  1030.1hPa West 0.9mph /  1.4km/h 1mph /  1.6km/h 95% 0in /  0.0mm 70 W/m2
12:40 44.4 °F /  6.9 °C 43.2 °F /  6.2 °C 30.4in /  1030.1hPa Calm   3mph /  4.8km/h 95% 0in /  0.0mm 53 W/m2
12:45 44.6 °F /  7 °C 43.3 °F /  6.3 °C 30.4in /  1030.1hPa Calm     95% 0in /  0.0mm 81 W/m2
12:50 44.8 °F /  7.1 °C 43.2 °F /  6.2 °C 30.4in /  1030.1hPa Calm   2mph /  3.2km/h 94% 0in /  0.0mm 107 W/m2
12:55 45 °F /  7.2 °C 43.3 °F /  6.3 °C 30.4in /  1030.1hPa Calm     94% 0in /  0.0mm 86 W/m2
13:00 45 °F /  7.2 °C 43.3 °F /  6.3 °C 30.4in /  1030.1hPa West 2.9mph /  4.7km/h 3mph /  4.8km/h 94% 0in /  0.0mm 74 W/m2
13:05 45.1 °F /  7.3 °C 43.5 °F /  6.4 °C 30.4in /  1029.8hPa Calm     94% 0in /  0.0mm 76 W/m2
13:10 45.1 °F /  7.3 °C 43.5 °F /  6.4 °C 30.4in /  1029.8hPa Calm   1mph /  1.6km/h 94% 0in /  0.0mm 70 W/m2
13:15 45.1 °F /  7.3 °C 43.5 °F /  6.4 °C 30.4in /  1029.8hPa Calm     94% 0in /  0.0mm 102 W/m2
13:20 45.3 °F /  7.4 °C 43.3 °F /  6.3 °C 30.4in /  1029.8hPa Calm   1mph /  1.6km/h 93% 0in /  0.0mm 84 W/m2
13:25 45.3 °F /  7.4 °C 43.3 °F /  6.3 °C 30.4in /  1029.5hPa Calm   3mph /  4.8km/h 93% 0in /  0.0mm 100 W/m2
13:30 45.5 °F /  7.5 °C 43.5 °F /  6.4 °C 30.4in /  1029.5hPa Calm   2mph /  3.2km/h 93% 0in /  0.0mm 104 W/m2
13:35 45.5 °F /  7.5 °C 43.5 °F /  6.4 °C 30.4in /  1029.5hPa SW 2mph /  3.2km/h 4mph /  6.4km/h 93% 0in /  0.0mm 121 W/m2
13:41 45.7 °F /  7.6 °C 43.5 °F /  6.4 °C 30.4in /  1029.5hPa Calm   3mph /  4.8km/h 92% 0in /  0.0mm 111 W/m2
13:46 45.7 °F /  7.6 °C 43.5 °F /  6.4 °C 30.4in /  1029.5hPa Calm     92% 0in /  0.0mm 90 W/m2
13:51 45.9 °F /  7.7 °C 43.7 °F /  6.5 °C 30.4in /  1029.5hPa Calm   1mph /  1.6km/h 92% 0in /  0.0mm 70 W/m2
13:56 45.7 °F /  7.6 °C 43.5 °F /  6.4 °C 30.4in /  1029.5hPa SSW 2mph /  3.2km/h 3mph /  4.8km/h 92% 0in /  0.0mm 63 W/m2
14:01 45.7 °F /  7.6 °C 43.2 °F /  6.2 °C 30.4in /  1029.5hPa Calm     91% 0in /  0.0mm 102 W/m2
14:06 45.9 °F /  7.7 °C 43.7 °F /  6.5 °C 30.4in /  1029.5hPa West 2.9mph /  4.7km/h 6mph /  9.7km/h 92% 0in /  0.0mm 95 W/m2
14:11 45.9 °F /  7.7 °C 43.3 °F /  6.3 °C 30.4in /  1029.5hPa Calm     91% 0in /  0.0mm 86 W/m2
14:16 45.9 °F /  7.7 °C 43.3 °F /  6.3 °C 30.4in /  1029.5hPa Calm   5mph /  8km/h 91% 0in /  0.0mm 100 W/m2
14:21 45.9 °F /  7.7 °C 43.3 °F /  6.3 °C 30.4in /  1029.5hPa Calm   1mph /  1.6km/h 91% 0in /  0.0mm 90 W/m2
14:26 45.9 °F /  7.7 °C 43.2 °F /  6.2 °C 30.4in /  1029.5hPa Calm   1mph /  1.6km/h 90% 0in /  0.0mm 83 W/m2
14:31 45.9 °F /  7.7 °C 43.2 °F /  6.2 °C 30.4in /  1029.5hPa Calm     90% 0in /  0.0mm 76 W/m2
14:36 46 °F /  7.8 °C 43.3 °F /  6.3 °C 30.4in /  1029.5hPa Calm   1mph /  1.6km/h 90% 0in /  0.0mm 86 W/m2
14:41 46 °F /  7.8 °C 43.3 °F /  6.3 °C 30.4in /  1029.5hPa WSW 2.9mph /  4.7km/h 3mph /  4.8km/h 90% 0in /  0.0mm 53 W/m2
14:46 46 °F /  7.8 °C 43.3 °F /  6.3 °C 30.4in /  1029.5hPa SW 0.9mph /  1.4km/h 1mph /  1.6km/h 90% 0in /  0.0mm 54 W/m2
14:51 46 °F /  7.8 °C 43 °F /  6.1 °C 30.4in /  1029.5hPa West 2mph /  3.2km/h 2mph /  3.2km/h 89% 0in /  0.0mm 60 W/m2
14:56 46 °F /  7.8 °C 43 °F /  6.1 °C 30.4in /  1029.5hPa Calm     89% 0in /  0.0mm 53 W/m2
15:01 46 °F /  7.8 °C 43 °F /  6.1 °C 30.4in /  1029.5hPa Calm     89% 0in /  0.0mm 51 W/m2
15:06 46 °F /  7.8 °C 43 °F /  6.1 °C 30.4in /  1029.5hPa Calm   2mph /  3.2km/h 89% 0in /  0.0mm 56 W/m2
15:11 46 °F /  7.8 °C 43 °F /  6.1 °C 30.4in /  1029.5hPa Calm     89% 0in /  0.0mm 44 W/m2
15:16 46 °F /  7.8 °C 43 °F /  6.1 °C 30.4in /  1029.5hPa Calm   2mph /  3.2km/h 89% 0in /  0.0mm 26 W/m2
15:22 45.9 °F /  7.7 °C 42.4 °F /  5.8 °C 30.4in /  1029.5hPa WSW 0.9mph /  1.4km/h 2mph /  3.2km/h 88% 0in /  0.0mm 19 W/m2
15:27 45.9 °F /  7.7 °C 42.4 °F /  5.8 °C 30.4in /  1029.5hPa Calm   2mph /  3.2km/h 88% 0in /  0.0mm 46 W/m2
15:32 45.9 °F /  7.7 °C 42.4 °F /  5.8 °C 30.4in /  1029.5hPa Calm   2mph /  3.2km/h 88% 0in /  0.0mm 58 W/m2
15:37 45.9 °F /  7.7 °C 42.4 °F /  5.8 °C 30.4in /  1029.5hPa Calm   1mph /  1.6km/h 88% 0in /  0.0mm 42 W/m2
15:42 45.7 °F /  7.6 °C 42.3 °F /  5.7 °C 30.4in /  1029.8hPa Calm     88% 0in /  0.0mm 32 W/m2
15:47 45.7 °F /  7.6 °C 42.6 °F /  5.9 °C 30.4in /  1029.8hPa Calm   2mph /  3.2km/h 89% 0in /  0.0mm 25 W/m2
15:52 45.7 °F /  7.6 °C 42.3 °F /  5.7 °C 30.4in /  1029.5hPa Calm     88% 0in /  0.0mm 35 W/m2
15:57 45.7 °F /  7.6 °C 42.3 °F /  5.7 °C 30.4in /  1029.8hPa Calm     88% 0in /  0.0mm 33 W/m2
16:02 45.7 °F /  7.6 °C 42.3 °F /  5.7 °C 30.4in /  1029.8hPa Calm     88% 0in /  0.0mm 30 W/m2
16:07 45.7 °F /  7.6 °C 42.3 °F /  5.7 °C 30.4in /  1029.8hPa Calm     88% 0in /  0.0mm 28 W/m2
16:12 45.5 °F /  7.5 °C 42.1 °F /  5.6 °C 30.4in /  1029.8hPa Calm     88% 0in /  0.0mm 30 W/m2
16:17 45.5 °F /  7.5 °C 42.4 °F /  5.8 °C 30.4in /  1029.8hPa Calm     89% 0in /  0.0mm 25 W/m2
16:22 45.3 °F /  7.4 °C 41.9 °F /  5.5 °C 30.4in /  1029.8hPa Calm     88% 0in /  0.0mm 25 W/m2
16:28 45.3 °F /  7.4 °C 42.3 °F /  5.7 °C 30.4in /  1029.8hPa Calm     89% 0in /  0.0mm 19 W/m2
16:33 45.3 °F /  7.4 °C 42.3 °F /  5.7 °C 30.4in /  1029.8hPa Calm     89% 0in /  0.0mm 11 W/m2
16:38 45.1 °F /  7.3 °C 42.1 °F /  5.6 °C 30.4in /  1029.5hPa Calm     89% 0in /  0.0mm 11 W/m2
16:43 45 °F /  7.2 °C 41.9 °F /  5.5 °C 30.4in /  1029.5hPa Calm     89% 0in /  0.0mm 7 W/m2
16:48 44.8 °F /  7.1 °C 42.1 °F /  5.6 °C 30.4in /  1029.5hPa ENE 0.9mph /  1.4km/h 2mph /  3.2km/h 90% 0in /  0.0mm 5 W/m2
16:53 44.6 °F /  7 °C 41.9 °F /  5.5 °C 30.4in /  1029.8hPa Calm     90% 0in /  0.0mm 0 W/m2
16:58 44.4 °F /  6.9 °C 41.7 °F /  5.4 °C 30.4in /  1029.8hPa Calm   2mph /  3.2km/h 90% 0in /  0.0mm 0 W/m2
17:03 44.4 °F /  6.9 °C 41.7 °F /  5.4 °C 30.4in /  1029.8hPa Calm   1mph /  1.6km/h 90% 0in /  0.0mm 0 W/m2
17:08 44.4 °F /  6.9 °C 41.7 °F /  5.4 °C 30.4in /  1029.5hPa Calm     90% 0in /  0.0mm 0 W/m2
17:13 44.4 °F /  6.9 °C 41.7 °F /  5.4 °C 30.4in /  1029.5hPa Calm   2mph /  3.2km/h 90% 0in /  0.0mm 0 W/m2
17:18 44.2 °F /  6.8 °C 41.7 °F /  5.4 °C 30.4in /  1029.5hPa East 2.9mph /  4.7km/h 3mph /  4.8km/h 91% 0in /  0.0mm 0 W/m2
17:23 44.2 °F /  6.8 °C 41.7 °F /  5.4 °C 30.4in /  1029.8hPa Calm     91% 0in /  0.0mm 0 W/m2
17:28 44.2 °F /  6.8 °C 41.7 °F /  5.4 °C 30.4in /  1029.8hPa Calm     91% 0in /  0.0mm 0 W/m2
17:33 44.2 °F /  6.8 °C 41.7 °F /  5.4 °C 30.4in /  1030.1hPa Calm     91% 0in /  0.0mm 0 W/m2
17:38 44.2 °F /  6.8 °C 41.7 °F /  5.4 °C 30.4in /  1029.8hPa Calm     91% 0in /  0.0mm 0 W/m2
17:43 44.1 °F /  6.7 °C 41.5 °F /  5.3 °C 30.4in /  1029.8hPa Calm     91% 0in /  0.0mm 0 W/m2
17:48 43.9 °F /  6.6 °C 41.4 °F /  5.2 °C 30.4in /  1029.5hPa Calm     91% 0in /  0.0mm 0 W/m2
17:53 43.9 °F /  6.6 °C 41.4 °F /  5.2 °C 30.4in /  1029.5hPa Calm   2mph /  3.2km/h 91% 0in /  0.0mm 0 W/m2
17:58 43.7 °F /  6.5 °C 41.2 °F /  5.1 °C 30.4in /  1029.5hPa Calm     91% 0in /  0.0mm 0 W/m2
18:03 43.5 °F /  6.4 °C 41 °F /  5 °C 30.4in /  1029.8hPa Calm     91% 0in /  0.0mm 0 W/m2
18:08 43.2 °F /  6.2 °C 40.6 °F /  4.8 °C 30.4in /  1029.8hPa Calm     91% 0in /  0.0mm 0 W/m2
18:13 43 °F /  6.1 °C 40.3 °F /  4.6 °C 30.4in /  1029.8hPa Calm     90% 0in /  0.0mm 0 W/m2
18:18 42.6 °F /  5.9 °C 40.1 °F /  4.5 °C 30.4in /  1029.8hPa Calm     91% 0in /  0.0mm 0 W/m2
18:23 42.3 °F /  5.7 °C 39.7 °F /  4.3 °C 30.4in /  1029.5hPa Calm     91% 0in /  0.0mm 0 W/m2
18:28 42.1 °F /  5.6 °C 39.6 °F /  4.2 °C 30.4in /  1029.5hPa Calm     91% 0in /  0.0mm 0 W/m2
18:33 41.7 °F /  5.4 °C 39.6 °F /  4.2 °C 30.4in /  1029.8hPa NW 0.9mph /  1.4km/h 1mph /  1.6km/h 92% 0in /  0.0mm 0 W/m2
18:38 41.4 °F /  5.2 °C 39 °F /  3.9 °C 30.4in /  1029.5hPa Calm   1mph /  1.6km/h 91% 0in /  0.0mm 0 W/m2
18:43 41 °F /  5 °C 38.8 °F /  3.8 °C 30.4in /  1029.5hPa Calm     92% 0in /  0.0mm 0 W/m2
18:48 40.6 °F /  4.8 °C 38.5 °F /  3.6 °C 30.4in /  1029.5hPa Calm     92% 0in /  0.0mm 0 W/m2
18:53 40.3 °F /  4.6 °C 38.1 °F /  3.4 °C 30.4in /  1029.5hPa Calm     92% 0in /  0.0mm 0 W/m2
18:58 39.9 °F /  4.4 °C 37.8 °F /  3.2 °C 30.4in /  1029.8hPa Calm     92% 0in /  0.0mm 0 W/m2
19:03 39.7 °F /  4.3 °C 37.9 °F /  3.3 °C 30.4in /  1029.5hPa Calm     93% 0in /  0.0mm 0 W/m2
19:08 39.6 °F /  4.2 °C 37.8 °F /  3.2 °C 30.4in /  1029.5hPa WNW 0.9mph /  1.4km/h 4mph /  6.4km/h 93% 0in /  0.0mm 0 W/m2
19:13 39.6 °F /  4.2 °C 37.8 °F /  3.2 °C 30.4in /  1029.5hPa Calm     93% 0in /  0.0mm 0 W/m2
19:18 39.4 °F /  4.1 °C 37.6 °F /  3.1 °C 30.4in /  1029.5hPa Calm   1mph /  1.6km/h 93% 0in /  0.0mm 0 W/m2
19:23 39.7 °F /  4.3 °C 38.1 °F /  3.4 °C 30.4in /  1029.5hPa Calm   1mph /  1.6km/h 94% 0in /  0.0mm 0 W/m2
19:28 39.7 °F /  4.3 °C 38.1 °F /  3.4 °C 30.4in /  1029.5hPa Calm     94% 0in /  0.0mm 0 W/m2
19:33 39.9 °F /  4.4 °C 38.3 °F /  3.5 °C 30.4in /  1029.5hPa Calm     94% 0in /  0.0mm 0 W/m2
19:38 39.9 °F /  4.4 °C 38.3 °F /  3.5 °C 30.4in /  1029.5hPa Calm     94% 0in /  0.0mm 0 W/m2
19:44 39.9 °F /  4.4 °C 38.1 °F /  3.4 °C 30.4in /  1029.8hPa Calm     93% 0in /  0.0mm 0 W/m2
19:49 39.6 °F /  4.2 °C 37.8 °F /  3.2 °C 30.4in /  1029.8hPa Calm     93% 0in /  0.0mm 0 W/m2
19:54 39.4 °F /  4.1 °C 37.8 °F /  3.2 °C 30.4in /  1029.8hPa NW 0.9mph /  1.4km/h 4mph /  6.4km/h 94% 0in /  0.0mm 0 W/m2
19:59 39.6 °F /  4.2 °C 37.9 °F /  3.3 °C 30.4in /  1029.8hPa NW 0.9mph /  1.4km/h 5mph /  8km/h 94% 0in /  0.0mm 0 W/m2
20:04 39.7 °F /  4.3 °C 38.1 °F /  3.4 °C 30.4in /  1029.5hPa WNW 4mph /  6.4km/h 6mph /  9.7km/h 94% 0in /  0.0mm 0 W/m2
20:09 39.7 °F /  4.3 °C 38.1 °F /  3.4 °C 30.4in /  1029.5hPa WNW 0.9mph /  1.4km/h 1mph /  1.6km/h 94% 0in /  0.0mm 0 W/m2
20:14 39.7 °F /  4.3 °C 38.1 °F /  3.4 °C 30.4in /  1029.5hPa Calm   3mph /  4.8km/h 94% 0in /  0.0mm 0 W/m2
20:20 39.7 °F /  4.3 °C 38.1 °F /  3.4 °C 30.4in /  1029.5hPa Calm   1mph /  1.6km/h 94% 0in /  0.0mm 0 W/m2
20:25 39.6 °F /  4.2 °C 37.8 °F /  3.2 °C 30.4in /  1029.5hPa Calm   2mph /  3.2km/h 93% 0in /  0.0mm 0 W/m2
20:30 39.4 °F /  4.1 °C 37.6 °F /  3.1 °C 30.4in /  1029.5hPa Calm     93% 0in /  0.0mm 0 W/m2
20:35 39 °F /  3.9 °C 37.2 °F /  2.9 °C 30.4in /  1029.5hPa Calm     93% 0in /  0.0mm 0 W/m2
20:40 38.8 °F /  3.8 °C 37 °F /  2.8 °C 30.4in /  1029.5hPa Calm   1mph /  1.6km/h 93% 0in /  0.0mm 0 W/m2
20:45 38.7 °F /  3.7 °C 36.9 °F /  2.7 °C 30.4in /  1029.5hPa Calm     93% 0in /  0.0mm 0 W/m2
20:50 38.7 °F /  3.7 °C 37 °F /  2.8 °C 30.4in /  1029.8hPa Calm     94% 0in /  0.0mm 0 W/m2
20:55 38.3 °F /  3.5 °C 36.5 °F /  2.5 °C 30.4in /  1029.8hPa Calm     93% 0in /  0.0mm 0 W/m2
21:00 37.9 °F /  3.3 °C 36.3 °F /  2.4 °C 30.4in /  1029.8hPa Calm     94% 0in /  0.0mm 0 W/m2
21:05 37.8 °F /  3.2 °C 36.1 °F /  2.3 °C 30.4in /  1029.5hPa Calm     94% 0in /  0.0mm 0 W/m2
21:10 37.8 °F /  3.2 °C 36.1 °F /  2.3 °C 30.4in /  1029.8hPa Calm   1mph /  1.6km/h 94% 0in /  0.0mm 0 W/m2
21:15 37.8 °F /  3.2 °C 36.5 °F /  2.5 °C 30.4in /  1029.5hPa Calm   1mph /  1.6km/h 95% 0in /  0.0mm 0 W/m2
21:20 37.8 °F /  3.2 °C 36.5 °F /  2.5 °C 30.4in /  1029.1hPa ESE 0.9mph /  1.4km/h 2mph /  3.2km/h 95% 0in /  0.0mm 0 W/m2
21:25 37.6 °F /  3.1 °C 36 °F /  2.2 °C 30.4in /  1029.1hPa Calm   1mph /  1.6km/h 94% 0in /  0.0mm 0 W/m2
21:30 37.8 °F /  3.2 °C 36.5 °F /  2.5 °C 30.4in /  1029.1hPa Calm   2mph /  3.2km/h 95% 0in /  0.0mm 0 W/m2
21:35 37.8 °F /  3.2 °C 36.5 °F /  2.5 °C 30.4in /  1029.1hPa Calm     95% 0in /  0.0mm 0 W/m2
21:40 37.8 °F /  3.2 °C 36.5 °F /  2.5 °C 30.4in /  1029.1hPa Calm   2mph /  3.2km/h 95% 0in /  0.0mm 0 W/m2
21:45 37.8 °F /  3.2 °C 36.5 °F /  2.5 °C 30.4in /  1029.5hPa Calm     95% 0in /  0.0mm 0 W/m2
21:51 37.8 °F /  3.2 °C 36.5 °F /  2.5 °C 30.4in /  1029.1hPa Calm     95% 0in /  0.0mm 0 W/m2
21:56 37.6 °F /  3.1 °C 36.3 °F /  2.4 °C 30.4in /  1029.5hPa Calm     95% 0in /  0.0mm 0 W/m2
22:01 37.6 °F /  3.1 °C 36.3 °F /  2.4 °C 30.4in /  1029.1hPa Calm     95% 0in /  0.0mm 0 W/m2
22:06 37.8 °F /  3.2 °C 36.7 °F /  2.6 °C 30.4in /  1029.1hPa Calm     96% 0in /  0.0mm 0 W/m2
22:11 37.9 °F /  3.3 °C 36.9 °F /  2.7 °C 30.4in /  1029.1hPa Calm     96% 0in /  0.0mm 0 W/m2
22:16 37.9 °F /  3.3 °C 36.7 °F /  2.6 °C 30.4in /  1029.1hPa Calm     95% 0in /  0.0mm 0 W/m2
22:21 38.1 °F /  3.4 °C 37 °F /  2.8 °C 30.4in /  1029.5hPa Calm   2mph /  3.2km/h 96% 0in /  0.0mm 0 W/m2
22:26 38.1 °F /  3.4 °C 36.9 °F /  2.7 °C 30.4in /  1029.1hPa Calm     95% 0in /  0.0mm 0 W/m2
22:31 38.1 °F /  3.4 °C 37 °F /  2.8 °C 30.4in /  1029.1hPa Calm     96% 0in /  0.0mm 0 W/m2
22:36 38.1 °F /  3.4 °C 36.9 °F /  2.7 °C 30.4in /  1029.1hPa WNW 0.9mph /  1.4km/h 3mph /  4.8km/h 95% 0in /  0.0mm 0 W/m2
22:41 38.1 °F /  3.4 °C 36.9 °F /  2.7 °C 30.4in /  1029.1hPa Calm   2mph /  3.2km/h 95% 0in /  0.0mm 0 W/m2
22:46 38.1 °F /  3.4 °C 36.9 °F /  2.7 °C 30.4in /  1029.1hPa Calm   3mph /  4.8km/h 95% 0in /  0.0mm 0 W/m2
22:51 37.8 °F /  3.2 °C 36.5 °F /  2.5 °C 30.4in /  1028.8hPa Calm     95% 0in /  0.0mm 0 W/m2
22:56 37.6 °F /  3.1 °C 36 °F /  2.2 °C 30.4in /  1028.8hPa Calm     94% 0in /  0.0mm 0 W/m2
23:01 37.2 °F /  2.9 °C 36 °F /  2.2 °C 30.4in /  1028.8hPa East 0.9mph /  1.4km/h 2mph /  3.2km/h 95% 0in /  0.0mm 0 W/m2
23:07 37 °F /  2.8 °C 35.8 °F /  2.1 °C 30.4in /  1028.8hPa Calm     95% 0in /  0.0mm 0 W/m2
23:12 37 °F /  2.8 °C 35.8 °F /  2.1 °C 30.4in /  1028.8hPa Calm   1mph /  1.6km/h 95% 0in /  0.0mm 0 W/m2
23:17 36.9 °F /  2.7 °C 35.6 °F /  2 °C 30.4in /  1028.8hPa Calm     95% 0in /  0.0mm 0 W/m2
23:22 36.9 °F /  2.7 °C 35.6 °F /  2 °C 30.4in /  1028.8hPa Calm   1mph /  1.6km/h 95% 0in /  0.0mm 0 W/m2
23:27 36.9 °F /  2.7 °C 35.6 °F /  2 °C 30.4in /  1028.8hPa Calm     95% 0in /  0.0mm 0 W/m2
23:32 36.9 °F /  2.7 °C 35.6 °F /  2 °C 30.4in /  1028.8hPa Calm     95% 0in /  0.0mm 0 W/m2
23:37 37 °F /  2.8 °C 35.8 °F /  2.1 °C 30.4in /  1028.8hPa Calm   1mph /  1.6km/h 95% 0in /  0.0mm 0 W/m2
23:42 37 °F /  2.8 °C 36 °F /  2.2 °C 30.4in /  1028.8hPa Calm     96% 0in /  0.0mm 0 W/m2
23:47 37.2 °F /  2.9 °C 36.1 °F /  2.3 °C 30.4in /  1028.5hPa ESE 0.9mph /  1.4km/h 2mph /  3.2km/h 96% 0in /  0.0mm 0 W/m2
23:52 37.4 °F /  3 °C 36.3 °F /  2.4 °C 30.4in /  1028.5hPa ESE 2mph /  3.2km/h 2mph /  3.2km/h 96% 0in /  0.0mm 0 W/m2
23:57 37.4 °F /  3 °C 36.3 °F /  2.4 °C 30.4in /  1028.5hPa ESE 2mph /  3.2km/h 3mph /  4.8km/h 96% 0in /  0.0mm 0 W/m2
Juneau County Weather
Compliments of Weather Underground - 4 mb